Custom file does not exist C:\wdisplay\webfiles\testtags.txt Borgafjälls vädersida - Nearby METAR Reports

Nearby METAR Reports

 

KSJC - San Jose, California, USA
Distance from station: NE 14km
Mise jour: 24/01/2021 04:53
clair
clair
 Wind from N
Vent: N 11 km/h
Temprature: 9°C
Wind Chill: 7°C
Point de rose: 6°C
Humidit: 82%
Baromtre: 1014.6 hPa
Clouds: clair
Visibility: 16 km
2021/01/24 03:53 KSJC 240353Z 01006KT 10SM CLR 09/06 A2996 RMK AO2 SLP146 T00940056
KNUQ - Moffett Nas/Mtn, California, USA
Distance from station: N 14km
Mise jour: 24/01/2021 05:30
clair
clair
 Wind from calm
Vent: calme
Temprature: 8°C
Point de rose: 5°C
Humidit: 82%
Baromtre: 1014.9 hPa
Clouds: clair
Visibility: 16 km
2021/01/24 04:30 KNUQ 240430Z AUTO 00000KT 10SM CLR 08/05 A2997 RMK AO2
 
KPAO - Palo Alto, California, USA
Distance from station: NNO 23km
Mise jour: 24/01/2021 04:47
clair
clair
 Wind from calm
Vent: calme
Temprature: 7°C
Point de rose: 3°C
Humidit: 76%
Baromtre: 1014.9 hPa
Clouds: clair
Visibility: 16 km
2021/01/24 03:47 KPAO 240347Z 00000KT 10SM SKC 07/03 A2997
KRHV - San Jose/Reid, California, USA
Distance from station: ENE 19km
Mise jour: 24/01/2021 05:50
clair
clair
 Wind from varies
Vent: varies 6 km/h
Temprature: 7°C
Point de rose: 4°C
Humidit: 81%
Baromtre: 1014.9 hPa
Clouds: clair
Visibility: 16 km
2021/01/24 04:50 KRHV 240450Z VRB03KT 10SM SKC 07/04 A2997
 
KOAK - Oakland, California, USA
Distance from station: NNO 50km
Mise jour: 24/01/2021 04:53
Few Clouds
Few Clouds
 Wind from calm
Vent: calme
Temprature: 12°C
Point de rose: 7°C
Humidit: 72%
Baromtre: 1014.9 hPa
Clouds: Few Clouds
Visibility: 16 km
Cloud details: Few Clouds 457 m
2021/01/24 03:53 KOAK 240353Z 00000KT 10SM FEW015 12/07 A2997 RMK AO2 SLP148 T01170067
KSQL - San Carlos Airpo, California, USA
Distance from station: NO 34km
Mise jour: 24/01/2021 05:47
Few Clouds
Few Clouds
 Wind from OSO
Vent: OSO 17 km/h
Temprature: 9°C
Wind Chill: 7°C
Point de rose: 6°C
Humidit: 82%
Baromtre: 1014.9 hPa
Clouds: Few Clouds
Visibility: 16 km
Cloud details: Few Clouds 457 m
2021/01/24 04:47 KSQL 240447Z 25009KT 10SM FEW015 09/06 A2997 RMK LAST
 
KSFO - San Francisco, California, USA
Distance from station: NO 49km
Mise jour: 24/01/2021 04:56
clair
clair
 Wind from O
Vent: O 15 km/h
Temprature: 11°C
Point de rose: 6°C
Humidit: 72%
Baromtre: 1014.2 hPa
Clouds: clair
Visibility: 16 km
2021/01/24 03:56 KSFO 240356Z 28008KT 10SM CLR 11/06 A2995 RMK AO2 SLP143 T01060061 $
KE16 - San Martin, California, USA
Distance from station: ESE 43km
Mise jour: 24/01/2021 05:35
Few Clouds
Few Clouds
 Wind from NO
Vent: NO 6 km/h
Temprature: 6°C
Point de rose: 4°C
Humidit: 87%
Baromtre: 1015.2 hPa
Clouds: Few Clouds
Visibility: 16 km
Cloud details: Few Clouds 975 m
2021/01/24 04:35 KE16 240435Z AUTO 31003KT 10SM FEW032 06/04 A2998 RMK AO2
 
KWVI - Watsonville, California, USA
Distance from station: SSE 44km
Mise jour: 24/01/2021 04:53
clair
clair
 Wind from NNO
Vent: NNO 7 km/h
Temprature: 7°C
Wind Chill: 6°C
Point de rose: 4°C
Humidit: 81%
Baromtre: 1014.9 hPa
Clouds: clair
Visibility: 16 km
2021/01/24 03:53 KWVI 240353Z AUTO 34004KT 10SM CLR 07/04 A2997 RMK AO2 SLP149 T00720039
KHAF - Half Moon Bay, California, USA
Distance from station: ONO 50km
Mise jour: 24/01/2021 05:35
pluie lgre, clair
pluie lgre, clair
 Wind from calm
Vent: calme
Temprature: 5°C
Point de rose: 4°C
Humidit: 93%
Baromtre: 1014.9 hPa
Rsum: pluie lgre
Clouds: clair
Visibility: 14 km
2021/01/24 04:35 KHAF 240435Z AUTO 00000KT 9SM -RA CLR 05/04 A2997 RMK AO2
 
KHWD - Hayward, California, USA
Distance from station: N 44km
Mise jour: 24/01/2021 04:54
clair
clair
 Wind from O
Vent: O 6 km/h
Temprature: 9°C
Point de rose: 6°C
Humidit: 82%
Baromtre: 1014.6 hPa
Clouds: clair
Visibility: 16 km
2021/01/24 03:54 KHWD 240354Z 28003KT 10SM CLR 09/06 A2996 RMK AO2 SLP155 T00940061
KLVK - Livermore, California, USA
Distance from station: NNE 51km
Mise jour: 24/01/2021 04:53
clair
clair
 Wind from calm
Vent: calme
Temprature: 7°C
Point de rose: 4°C
Humidit: 81%
Baromtre: 1014.2 hPa
Clouds: clair
Visibility: 16 km
2021/01/24 03:53 KLVK 240353Z AUTO 00000KT 10SM CLR 07/04 A2995 RMK AO2 SLP143 T00720044